Terminal Aerodrome Forecast
Issued by NWS

Home | Current Version | Previous Version | Text Only | Print | Product List | Glossary On
Versions: 1 2 3 4 5 6 7 8 9 10 11 12 13 14 15 16 17
000
FTUS45 KTFX 011300 AAA
TAFLWT
TAF AMD
KLWT 011345Z 0114/0212 22008KT P6SM SCT180
     FM020100 17008KT P6SM SCT180=

USA.gov is the U.S. government's official web portal to all federal, state and local government web resources and services.